createdAt,value
2023-02-11T00:00:51.354Z,-1.81
2023-02-11T00:01:53.157Z,-1.94
2023-02-11T00:02:54.742Z,-2.19
2023-02-11T00:03:57.276Z,-2.23
2023-02-11T00:05:01.486Z,-2.13
2023-02-11T00:06:09.288Z,-2.02
2023-02-11T00:07:10.834Z,-1.89
2023-02-11T00:08:17.002Z,-1.79
2023-02-11T00:09:18.556Z,-1.71
2023-02-11T00:10:20.131Z,-1.64
2023-02-11T00:11:24.074Z,-1.57
2023-02-11T00:12:26.061Z,-1.53
2023-02-11T00:13:27.786Z,-1.50
2023-02-11T00:14:29.393Z,-1.48
2023-02-11T00:15:31.083Z,-1.54
2023-02-11T00:16:32.917Z,-1.60
2023-02-11T00:17:35.746Z,-1.72
2023-02-11T00:18:37.479Z,-1.91
2023-02-11T00:19:39.939Z,-1.98
2023-02-11T00:20:42.092Z,-2.03
2023-02-11T00:21:43.647Z,-2.06
2023-02-11T00:22:45.433Z,-2.02
2023-02-11T00:23:47.892Z,-2.02
2023-02-11T00:24:49.506Z,-2.02
2023-02-11T00:25:51.320Z,-2.09
2023-02-11T00:26:53.138Z,-2.25
2023-02-11T00:27:54.719Z,-2.47
2023-02-11T00:28:57.141Z,-2.44
2023-02-11T00:30:00.551Z,-2.56
2023-02-11T00:31:02.656Z,-2.51
2023-02-11T00:32:05.387Z,-2.57
2023-02-11T00:33:07.357Z,-2.69
2023-02-11T00:34:08.959Z,-2.93
2023-02-11T00:35:10.524Z,-2.99
2023-02-11T00:36:16.387Z,-3.12
2023-02-11T00:37:17.903Z,-3.10
2023-02-11T00:38:19.577Z,-3.24
2023-02-11T00:39:21.127Z,-3.37
2023-02-11T00:40:22.832Z,-3.38
2023-02-11T00:41:26.042Z,-3.48
2023-02-11T00:42:27.633Z,-3.62
2023-02-11T00:43:29.218Z,-3.65
2023-02-11T00:44:30.867Z,-3.61
2023-02-11T00:45:32.579Z,-3.56
2023-02-11T00:46:34.257Z,-3.67
2023-02-11T00:47:36.202Z,-3.76
2023-02-11T00:48:38.017Z,-3.74
2023-02-11T00:49:40.432Z,-3.73
2023-02-11T00:50:42.070Z,-3.73
2023-02-11T00:51:43.632Z,-3.71
2023-02-11T00:52:45.218Z,-3.71
2023-02-11T00:53:46.775Z,-3.67
2023-02-11T00:54:48.324Z,-3.55
2023-02-11T00:55:50.142Z,-3.49
2023-02-11T00:56:51.767Z,-3.39
2023-02-11T00:57:53.435Z,-3.33
2023-02-11T00:58:55.109Z,-3.24
2023-02-11T00:59:56.672Z,-3.27
2023-02-11T01:00:58.358Z,-3.33
2023-02-11T01:01:59.993Z,-3.31
2023-02-11T01:03:01.581Z,-3.27
2023-02-11T01:04:03.211Z,-3.19
2023-02-11T01:05:05.558Z,-3.28
2023-02-11T01:06:08.812Z,-3.36
2023-02-11T01:07:10.450Z,-3.38
2023-02-11T01:08:12.425Z,-3.41
2023-02-11T01:09:13.945Z,-3.59
2023-02-11T01:10:15.949Z,-3.61
2023-02-11T01:11:20.362Z,-3.58
2023-02-11T01:12:22.549Z,-3.45
2023-02-11T01:13:25.147Z,-3.40
2023-02-11T01:14:26.662Z,-3.41
2023-02-11T01:15:28.368Z,-3.33
2023-02-11T01:16:30.058Z,-3.26
2023-02-11T01:17:31.693Z,-3.33
2023-02-11T01:18:33.643Z,-3.27
2023-02-11T01:19:37.415Z,-3.31
2023-02-11T01:20:38.956Z,-3.36
2023-02-11T01:21:40.478Z,-3.42
2023-02-11T01:22:42.450Z,-3.48
2023-02-11T01:23:44.124Z,-3.39
2023-02-11T01:24:45.651Z,-3.28
2023-02-11T01:25:47.648Z,-3.17
2023-02-11T01:26:49.256Z,-3.14
2023-02-11T01:27:50.968Z,-3.13
2023-02-11T01:28:52.546Z,-3.14
2023-02-11T01:29:54.105Z,-3.07
2023-02-11T01:30:56.675Z,-3.10
2023-02-11T01:31:58.365Z,-3.24
2023-02-11T01:32:59.964Z,-3.36
2023-02-11T01:34:01.635Z,-3.56
2023-02-11T01:35:03.826Z,-3.56
2023-02-11T01:36:06.223Z,-3.56
2023-02-11T01:37:07.890Z,-3.63
2023-02-11T01:38:16.557Z,-3.64
2023-02-11T01:39:18.195Z,-3.60
2023-02-11T01:40:19.775Z,-3.55
2023-02-11T01:41:21.503Z,-3.44
2023-02-11T01:42:23.655Z,-3.40
2023-02-11T01:43:26.549Z,-3.50
2023-02-11T01:44:33.476Z,-3.67
2023-02-11T01:45:50.119Z,-3.80
2023-02-11T01:46:52.325Z,-3.74
2023-02-11T01:47:53.924Z,-3.62
2023-02-11T01:49:11.592Z,-3.40
2023-02-11T01:50:13.395Z,-3.23
2023-02-11T01:51:21.064Z,-3.14
2023-02-11T01:52:37.129Z,-3.10
2023-02-11T01:53:57.560Z,-3.24
2023-02-11T01:55:22.065Z,-3.39
2023-02-11T01:56:43.824Z,-3.50
2023-02-11T01:57:51.271Z,-3.73
2023-02-11T01:58:59.311Z,-3.87
2023-02-11T02:00:03.938Z,-3.92
2023-02-11T02:01:08.391Z,-3.97
2023-02-11T02:02:12.732Z,-3.83
2023-02-11T02:03:22.464Z,-3.75
2023-02-11T02:04:31.461Z,-3.66
2023-02-11T02:05:39.241Z,-3.75
2023-02-11T02:06:46.285Z,-3.75
2023-02-11T02:08:15.818Z,-3.64
2023-02-11T02:09:25.573Z,-3.52
2023-02-11T02:10:29.096Z,-3.41
2023-02-11T02:11:31.015Z,-3.33
2023-02-11T02:12:32.641Z,-3.26
2023-02-11T02:13:35.606Z,-3.26
2023-02-11T02:14:41.471Z,-3.24
2023-02-11T02:15:53.372Z,-3.37
2023-02-11T02:16:55.330Z,-3.44
2023-02-11T02:18:24.656Z,-3.56
2023-02-11T02:20:02.372Z,-3.58
2023-02-11T02:21:42.736Z,-3.45
2023-02-11T02:22:55.143Z,-3.44
2023-02-11T02:24:15.302Z,-3.39
2023-02-11T02:25:38.465Z,-3.41
2023-02-11T02:27:10.968Z,-3.32
2023-02-11T02:28:18.555Z,-3.27
2023-02-11T02:29:20.112Z,-3.27
2023-02-11T02:30:27.864Z,-3.38
2023-02-11T02:31:53.455Z,-3.57
2023-02-11T02:33:22.268Z,-3.71
2023-02-11T02:34:56.395Z,-3.64
2023-02-11T02:35:57.905Z,-3.50
2023-02-11T02:37:08.236Z,-3.45
2023-02-11T02:38:34.550Z,-3.71
2023-02-11T02:39:37.467Z,-3.77
2023-02-11T02:40:54.762Z,-3.79
2023-02-11T02:41:57.264Z,-3.82
2023-02-11T02:43:00.894Z,-3.69
2023-02-11T02:44:03.085Z,-3.56
2023-02-11T02:45:05.269Z,-3.56
2023-02-11T02:46:32.543Z,-3.51
2023-02-11T02:47:34.137Z,-3.53
2023-02-11T02:48:35.851Z,-3.49
2023-02-11T02:49:37.385Z,-3.50
2023-02-11T02:50:39.152Z,-3.47
2023-02-11T02:51:55.711Z,-3.49
2023-02-11T02:53:20.530Z,-3.42
2023-02-11T02:54:40.683Z,-3.29
2023-02-11T02:56:00.298Z,-3.20
2023-02-11T02:57:34.906Z,-3.16
2023-02-11T02:58:52.206Z,-3.32
2023-02-11T02:59:59.781Z,-3.38
2023-02-11T03:01:36.850Z,-3.44
2023-02-11T03:02:59.874Z,-3.35
2023-02-11T03:04:22.779Z,-3.34
2023-02-11T03:05:49.745Z,-3.46
2023-02-11T03:07:33.575Z,-3.61
2023-02-11T03:08:51.378Z,-3.53
2023-02-11T03:10:05.727Z,-3.45
2023-02-11T03:11:09.545Z,-3.64
2023-02-11T03:12:13.148Z,-3.85
2023-02-11T03:13:19.482Z,-4.07
2023-02-11T03:14:23.542Z,-3.90
2023-02-11T03:15:28.387Z,-3.89
2023-02-11T03:16:30.871Z,-3.97
2023-02-11T03:17:35.081Z,-4.05
2023-02-11T03:18:41.788Z,-4.39
2023-02-11T03:19:46.466Z,-4.48
2023-02-11T03:20:53.310Z,-4.32
2023-02-11T03:21:56.831Z,-4.22
2023-02-11T03:23:12.657Z,-4.03
2023-02-11T03:24:22.224Z,-3.95
2023-02-11T03:25:30.266Z,-4.02
2023-02-11T03:26:38.846Z,-3.95
2023-02-11T03:28:01.491Z,-3.98
2023-02-11T03:29:09.574Z,-4.21
2023-02-11T03:30:26.793Z,-4.25
2023-02-11T03:31:35.695Z,-4.20
2023-02-11T03:32:42.026Z,-4.15
2023-02-11T03:34:00.114Z,-4.11
2023-02-11T03:35:23.227Z,-4.01
2023-02-11T03:36:34.375Z,-4.17
2023-02-11T03:37:45.384Z,-4.23
2023-02-11T03:38:55.693Z,-4.21
2023-02-11T03:40:05.343Z,-4.24
2023-02-11T03:41:10.009Z,-4.23
2023-02-11T03:42:14.662Z,-4.18
2023-02-11T03:43:31.976Z,-4.18
2023-02-11T03:44:40.036Z,-4.15
2023-02-11T03:45:41.709Z,-4.07
2023-02-11T03:46:47.992Z,-3.98
2023-02-11T03:47:56.838Z,-3.91
2023-02-11T03:49:09.710Z,-3.86
2023-02-11T03:50:14.778Z,-3.81
2023-02-11T03:51:17.278Z,-3.74
2023-02-11T03:52:21.592Z,-3.68
2023-02-11T03:53:23.754Z,-3.60
2023-02-11T03:54:30.224Z,-3.53
2023-02-11T03:55:37.003Z,-3.51
2023-02-11T03:56:52.143Z,-3.54
2023-02-11T03:57:54.099Z,-3.58
2023-02-11T03:58:56.012Z,-3.54
2023-02-11T03:59:59.413Z,-3.77
2023-02-11T04:01:02.789Z,-4.00
2023-02-11T04:02:04.388Z,-4.01
2023-02-11T04:03:06.684Z,-4.05
2023-02-11T04:04:08.241Z,-4.05
2023-02-11T04:05:15.274Z,-4.02
2023-02-11T04:06:16.861Z,-4.14
2023-02-11T04:07:18.572Z,-4.26
2023-02-11T04:08:20.926Z,-4.20
2023-02-11T04:09:22.499Z,-4.19
2023-02-11T04:10:24.100Z,-4.28
2023-02-11T04:11:25.651Z,-4.42
2023-02-11T04:12:27.199Z,-4.44
2023-02-11T04:13:28.772Z,-4.42
2023-02-11T04:14:30.325Z,-4.47
2023-02-11T04:15:32.377Z,-4.54
2023-02-11T04:16:33.982Z,-4.49
2023-02-11T04:17:35.633Z,-4.51
2023-02-11T04:18:37.173Z,-4.67
2023-02-11T04:19:39.091Z,-4.63
2023-02-11T04:20:40.669Z,-4.50
2023-02-11T04:21:42.171Z,-4.41
2023-02-11T04:22:43.728Z,-4.43
2023-02-11T04:23:45.249Z,-4.38
2023-02-11T04:24:46.918Z,-4.34
2023-02-11T04:25:51.538Z,-4.26
2023-02-11T04:26:53.565Z,-4.15
2023-02-11T04:27:55.236Z,-4.07
2023-02-11T04:28:56.806Z,-4.08
2023-02-11T04:29:58.494Z,-4.00
2023-02-11T04:31:00.164Z,-3.89
2023-02-11T04:32:01.779Z,-3.80
2023-02-11T04:33:03.526Z,-3.84
2023-02-11T04:34:05.190Z,-3.96
2023-02-11T04:35:07.050Z,-4.11
2023-02-11T04:36:08.761Z,-4.10
2023-02-11T04:37:10.589Z,-4.36
2023-02-11T04:38:12.182Z,-4.39
2023-02-11T04:39:13.862Z,-4.29
2023-02-11T04:40:15.509Z,-4.24
2023-02-11T04:41:17.133Z,-4.16
2023-02-11T04:42:18.722Z,-4.14
2023-02-11T04:43:20.322Z,-4.20
2023-02-11T04:44:21.919Z,-4.20
2023-02-11T04:45:23.468Z,-4.14
2023-02-11T04:46:25.306Z,-4.05
2023-02-11T04:47:26.899Z,-3.91
2023-02-11T04:48:28.452Z,-3.82
2023-02-11T04:49:29.995Z,-3.75
2023-02-11T04:50:31.581Z,-3.66
2023-02-11T04:51:33.155Z,-3.64
2023-02-11T04:52:34.705Z,-3.63
2023-02-11T04:53:36.245Z,-3.68
2023-02-11T04:54:37.842Z,-3.81
2023-02-11T04:55:39.397Z,-3.76
2023-02-11T04:56:40.955Z,-3.71
2023-02-11T04:57:42.466Z,-3.64
2023-02-11T04:58:44.005Z,-3.59
2023-02-11T04:59:45.549Z,-3.55
2023-02-11T05:00:47.504Z,-3.50
2023-02-11T05:01:49.989Z,-3.49
2023-02-11T05:02:51.552Z,-3.45
2023-02-11T05:03:53.157Z,-3.41
2023-02-11T05:04:54.733Z,-3.36
2023-02-11T05:05:56.367Z,-3.30
2023-02-11T05:06:58.811Z,-3.23
2023-02-11T05:08:00.405Z,-3.21
2023-02-11T05:09:02.001Z,-3.26
2023-02-11T05:10:04.188Z,-3.27
2023-02-11T05:11:06.253Z,-3.46
2023-02-11T05:12:08.821Z,-3.65
2023-02-11T05:13:10.338Z,-3.75
2023-02-11T05:14:11.970Z,-3.71
2023-02-11T05:15:13.512Z,-3.68
2023-02-11T05:16:16.304Z,-3.76
2023-02-11T05:17:18.618Z,-3.91
2023-02-11T05:18:20.203Z,-3.89
2023-02-11T05:19:21.772Z,-3.81
2023-02-11T05:20:23.620Z,-3.78
2023-02-11T05:21:25.256Z,-3.74
2023-02-11T05:22:26.844Z,-3.91
2023-02-11T05:23:28.402Z,-4.07
2023-02-11T05:24:33.339Z,-4.12
2023-02-11T05:25:35.131Z,-4.26
2023-02-11T05:26:36.695Z,-4.18
2023-02-11T05:27:38.413Z,-4.09
2023-02-11T05:28:40.148Z,-4.10
2023-02-11T05:29:41.652Z,-4.00
2023-02-11T05:30:43.337Z,-3.91
2023-02-11T05:31:44.914Z,-3.80
2023-02-11T05:32:46.491Z,-3.71
2023-02-11T05:33:48.044Z,-3.64
2023-02-11T05:34:49.594Z,-3.56
2023-02-11T05:35:51.777Z,-3.51
2023-02-11T05:36:53.534Z,-3.50
2023-02-11T05:37:55.121Z,-3.46
2023-02-11T05:38:56.700Z,-3.41
2023-02-11T05:39:58.246Z,-3.38
2023-02-11T05:41:00.060Z,-3.32
2023-02-11T05:42:01.639Z,-3.39
2023-02-11T05:43:03.423Z,-3.48
2023-02-11T05:44:04.973Z,-3.56
2023-02-11T05:45:07.002Z,-3.53
2023-02-11T05:46:08.822Z,-3.50
2023-02-11T05:47:10.475Z,-3.62
2023-02-11T05:48:12.061Z,-3.61
2023-02-11T05:49:13.586Z,-3.52
2023-02-11T05:50:15.468Z,-3.40
2023-02-11T05:51:17.004Z,-3.29
2023-02-11T05:52:18.543Z,-3.22
2023-02-11T05:53:20.087Z,-3.15
2023-02-11T05:54:21.663Z,-3.12
2023-02-11T05:55:23.403Z,-3.10
2023-02-11T05:56:24.966Z,-3.09
2023-02-11T05:57:26.495Z,-3.10
2023-02-11T05:58:28.355Z,-3.18
2023-02-11T05:59:30.102Z,-3.37
2023-02-11T06:00:31.635Z,-3.44
2023-02-11T06:01:33.229Z,-3.44
2023-02-11T06:02:34.874Z,-3.33
2023-02-11T06:03:36.505Z,-3.28
2023-02-11T06:04:38.252Z,-3.30
2023-02-11T06:05:39.862Z,-3.50
2023-02-11T06:06:41.417Z,-3.81
2023-02-11T06:07:43.217Z,-3.92
2023-02-11T06:08:44.775Z,-3.87
2023-02-11T06:09:46.392Z,-3.82
2023-02-11T06:10:47.963Z,-3.68
2023-02-11T06:11:49.502Z,-3.53
2023-02-11T06:12:51.086Z,-3.44
2023-02-11T06:13:52.721Z,-3.36
2023-02-11T06:14:54.259Z,-3.27
2023-02-11T06:15:57.921Z,-3.19
2023-02-11T06:16:59.620Z,-3.08
2023-02-11T06:18:01.241Z,-3.01
2023-02-11T06:19:02.915Z,-2.98
2023-02-11T06:20:07.674Z,-2.97
2023-02-11T06:21:11.439Z,-3.12
2023-02-11T06:22:13.047Z,-3.09
2023-02-11T06:23:14.704Z,-3.03
2023-02-11T06:24:21.645Z,-2.98
2023-02-11T06:25:30.241Z,-2.91
2023-02-11T06:26:32.771Z,-2.87
2023-02-11T06:27:34.304Z,-2.94
2023-02-11T06:28:36.156Z,-2.98
2023-02-11T06:29:37.802Z,-3.06
2023-02-11T06:30:39.368Z,-3.38
2023-02-11T06:31:41.147Z,-3.54
2023-02-11T06:32:45.213Z,-3.51
2023-02-11T06:33:47.382Z,-3.40
2023-02-11T06:34:48.969Z,-3.58
2023-02-11T06:35:51.159Z,-3.69
2023-02-11T06:36:52.890Z,-3.83
2023-02-11T06:37:54.637Z,-3.93
2023-02-11T06:38:56.175Z,-3.93
2023-02-11T06:39:57.814Z,-3.87
2023-02-11T06:40:59.371Z,-3.91
2023-02-11T06:42:00.899Z,-3.76
2023-02-11T06:43:02.537Z,-3.58
2023-02-11T06:44:04.401Z,-3.39
2023-02-11T06:45:08.980Z,-3.23
2023-02-11T06:46:10.618Z,-3.06
2023-02-11T06:47:13.032Z,-2.90
2023-02-11T06:48:14.770Z,-2.81
2023-02-11T06:49:16.766Z,-2.71
2023-02-11T06:50:18.373Z,-2.54
2023-02-11T06:51:19.898Z,-2.38
2023-02-11T06:52:21.523Z,-2.22
2023-02-11T06:53:23.130Z,-2.07
2023-02-11T06:54:24.738Z,-1.94
2023-02-11T06:55:26.530Z,-1.81
2023-02-11T06:56:28.192Z,-1.70
2023-02-11T06:57:31.007Z,-1.61
2023-02-11T06:58:33.350Z,-1.58
2023-02-11T06:59:34.951Z,-1.54
2023-02-11T07:00:37.453Z,-1.41
2023-02-11T07:01:39.021Z,-1.23
2023-02-11T07:02:40.622Z,-1.08
2023-02-11T07:03:44.675Z,-0.95
2023-02-11T07:04:46.303Z,-0.84
2023-02-11T07:05:47.937Z,-0.78
2023-02-11T07:06:49.532Z,-0.74
2023-02-11T07:07:51.079Z,-0.69
2023-02-11T07:08:54.334Z,-0.55
2023-02-11T07:09:56.030Z,-0.51
2023-02-11T07:10:57.568Z,-0.90
2023-02-11T07:11:59.496Z,-1.03
2023-02-11T07:13:01.097Z,-0.97
2023-02-11T07:14:05.832Z,-0.83
2023-02-11T07:15:07.750Z,-0.66
2023-02-11T07:16:12.636Z,-0.42
2023-02-11T07:17:14.701Z,-0.35
2023-02-11T07:18:16.475Z,-0.25
2023-02-11T07:19:18.031Z,-0.11
2023-02-11T07:20:19.631Z,0.05
2023-02-11T07:21:24.343Z,0.20
2023-02-11T07:22:25.925Z,0.26
2023-02-11T07:23:28.361Z,0.33
2023-02-11T07:24:29.872Z,0.31
2023-02-11T07:25:31.493Z,0.31
2023-02-11T07:26:33.042Z,0.40
2023-02-11T07:27:34.684Z,0.39
2023-02-11T07:28:37.084Z,0.36
2023-02-11T07:29:38.713Z,0.33
2023-02-11T07:30:40.295Z,0.32
2023-02-11T07:31:41.962Z,0.47
2023-02-11T07:32:43.598Z,0.61
2023-02-11T07:33:45.965Z,0.70
2023-02-11T07:34:48.620Z,0.73
2023-02-11T07:35:50.423Z,0.88
2023-02-11T07:36:52.127Z,1.01
2023-02-11T07:37:53.648Z,1.05
2023-02-11T07:38:55.283Z,0.93
2023-02-11T07:39:56.854Z,0.50
2023-02-11T07:41:02.946Z,0.11
2023-02-11T07:42:04.808Z,0.17
2023-02-11T07:43:06.396Z,0.14
2023-02-11T07:44:08.013Z,0.35
2023-02-11T07:45:09.730Z,0.64
2023-02-11T07:46:15.318Z,0.73
2023-02-11T07:47:16.980Z,0.84
2023-02-11T07:48:18.578Z,0.98
2023-02-11T07:49:20.107Z,0.72
2023-02-11T07:50:21.684Z,0.66
2023-02-11T07:51:29.117Z,0.67
2023-02-11T07:52:31.258Z,0.80
2023-02-11T07:53:32.840Z,0.81
2023-02-11T07:54:34.520Z,0.71
2023-02-11T07:55:36.080Z,0.56
2023-02-11T07:56:37.649Z,0.35
2023-02-11T07:57:39.207Z,0.21
2023-02-11T07:58:43.159Z,0.46
2023-02-11T07:59:44.758Z,0.72
2023-02-11T08:00:46.496Z,0.81
2023-02-11T08:01:48.191Z,0.76
2023-02-11T08:02:49.875Z,0.67
2023-02-11T08:03:52.168Z,0.35
2023-02-11T08:04:53.727Z,0.23
2023-02-11T08:05:55.330Z,0.26
2023-02-11T08:06:59.111Z,0.41
2023-02-11T08:08:00.817Z,0.59
2023-02-11T08:09:07.625Z,0.57
2023-02-11T08:10:09.313Z,0.71
2023-02-11T08:11:14.376Z,0.92
2023-02-11T08:12:15.955Z,1.15
2023-02-11T08:13:17.490Z,1.31
2023-02-11T08:14:20.447Z,1.41
2023-02-11T08:15:22.075Z,1.49
2023-02-11T08:16:26.368Z,1.59
2023-02-11T08:17:27.974Z,1.84
2023-02-11T08:18:30.607Z,2.01
2023-02-11T08:19:34.871Z,1.99
2023-02-11T08:20:36.711Z,1.98
2023-02-11T08:21:39.501Z,2.10
2023-02-11T08:22:41.202Z,2.01
2023-02-11T08:23:44.389Z,2.13
2023-02-11T08:24:45.951Z,2.18
2023-02-11T08:25:47.478Z,2.05
2023-02-11T08:26:49.577Z,2.18
2023-02-11T08:27:51.147Z,2.20
2023-02-11T08:28:54.342Z,2.33
2023-02-11T08:29:56.163Z,2.41
2023-02-11T08:30:58.044Z,2.51
2023-02-11T08:31:59.827Z,2.52
2023-02-11T08:33:01.590Z,2.40
2023-02-11T08:34:03.586Z,2.76
2023-02-11T08:35:07.900Z,3.35
2023-02-11T08:36:10.822Z,3.38
2023-02-11T08:37:12.408Z,3.43
2023-02-11T08:38:13.932Z,3.51
2023-02-11T08:39:20.493Z,3.67
2023-02-11T08:40:22.817Z,3.53
2023-02-11T08:41:24.505Z,3.04
2023-02-11T08:42:26.082Z,2.96
2023-02-11T08:43:27.618Z,2.95
2023-02-11T08:44:30.061Z,2.98
2023-02-11T08:45:32.385Z,3.09
2023-02-11T08:46:34.036Z,3.26
2023-02-11T08:47:36.479Z,3.42
2023-02-11T08:48:38.198Z,3.57
2023-02-11T08:49:41.865Z,3.65
2023-02-11T08:50:43.474Z,3.71
2023-02-11T08:51:46.031Z,3.68
2023-02-11T08:52:47.595Z,3.38
2023-02-11T08:53:49.283Z,3.12
2023-02-11T08:54:51.199Z,2.94
2023-02-11T08:55:55.495Z,3.22
2023-02-11T08:56:58.290Z,3.42
2023-02-11T08:57:59.921Z,3.61
2023-02-11T08:59:01.920Z,3.83
2023-02-11T09:00:04.684Z,4.04
2023-02-11T09:01:32.619Z,4.15
2023-02-11T09:02:34.177Z,4.16
2023-02-11T09:03:35.771Z,4.26
2023-02-11T09:04:37.320Z,4.32
2023-02-11T09:05:47.259Z,4.39
2023-02-11T09:06:49.060Z,4.46
2023-02-11T09:07:50.663Z,4.44
2023-02-11T09:08:54.774Z,4.34
2023-02-11T09:09:56.288Z,4.17
2023-02-11T09:10:57.910Z,3.80
2023-02-11T09:12:01.311Z,3.85
2023-02-11T09:13:03.150Z,3.94
2023-02-11T09:14:04.817Z,3.76
2023-02-11T09:15:06.774Z,3.88
2023-02-11T09:16:08.698Z,4.04
2023-02-11T09:17:10.342Z,4.18
2023-02-11T09:18:12.010Z,4.33
2023-02-11T09:19:13.905Z,4.47
2023-02-11T09:20:15.600Z,4.52
2023-02-11T09:21:18.385Z,4.46
2023-02-11T09:22:19.944Z,4.47
2023-02-11T09:23:21.492Z,4.55
2023-02-11T09:24:23.067Z,4.58
2023-02-11T09:25:25.685Z,4.56
2023-02-11T09:26:32.541Z,4.62
2023-02-11T09:27:34.114Z,4.66
2023-02-11T09:28:35.920Z,4.75
2023-02-11T09:29:37.594Z,4.33
2023-02-11T09:30:39.516Z,4.08
2023-02-11T09:31:41.329Z,4.04
2023-02-11T09:32:42.999Z,4.01
2023-02-11T09:33:49.536Z,4.00
2023-02-11T09:34:51.151Z,3.70
2023-02-11T09:35:52.706Z,3.47
2023-02-11T09:36:54.366Z,3.39
2023-02-11T09:37:56.062Z,3.43
2023-02-11T09:38:59.810Z,3.51
2023-02-11T09:40:01.421Z,3.63
2023-02-11T09:41:08.086Z,3.67
2023-02-11T09:42:45.206Z,3.83
2023-02-11T09:43:48.277Z,4.13
2023-02-11T09:44:50.204Z,4.24
2023-02-11T09:45:55.887Z,4.29
2023-02-11T09:47:01.519Z,4.42
2023-02-11T09:48:12.594Z,4.55
2023-02-11T09:49:22.640Z,4.57
2023-02-11T09:50:32.580Z,4.65
2023-02-11T09:51:48.260Z,4.64
2023-02-11T09:53:14.702Z,4.57
2023-02-11T09:54:53.849Z,4.46
2023-02-11T09:55:59.723Z,4.27
2023-02-11T09:57:02.105Z,4.23
2023-02-11T09:58:11.544Z,4.36
2023-02-11T09:59:17.667Z,4.43
2023-02-11T10:00:25.106Z,4.11
2023-02-11T10:01:39.906Z,4.20
2023-02-11T10:03:15.819Z,4.37
2023-02-11T10:04:31.786Z,4.55
2023-02-11T10:05:36.161Z,4.52
2023-02-11T10:06:56.444Z,4.47
2023-02-11T10:08:09.880Z,4.63
2023-02-11T10:09:20.465Z,4.58
2023-02-11T10:10:40.592Z,4.56
2023-02-11T10:12:12.626Z,4.61
2023-02-11T10:14:07.610Z,4.44
2023-02-11T10:15:17.936Z,4.34
2023-02-11T10:16:34.072Z,4.42
2023-02-11T10:17:50.775Z,4.48
2023-02-11T10:19:27.278Z,4.42
2023-02-11T10:20:55.674Z,4.35
2023-02-11T10:22:06.126Z,4.38
2023-02-11T10:23:17.191Z,4.33
2023-02-11T10:24:20.398Z,4.32
2023-02-11T10:25:46.515Z,4.02
2023-02-11T10:26:49.080Z,4.01
2023-02-11T10:27:52.362Z,4.04
2023-02-11T10:28:55.710Z,4.08
2023-02-11T10:30:08.533Z,4.07
2023-02-11T10:31:18.108Z,4.06
2023-02-11T10:33:04.636Z,4.13
2023-02-11T10:34:10.481Z,4.19
2023-02-11T10:35:22.068Z,4.23
2023-02-11T10:36:28.148Z,4.15
2023-02-11T10:37:30.775Z,4.11
2023-02-11T10:38:33.859Z,3.95
2023-02-11T10:39:35.370Z,3.81
2023-02-11T10:40:37.124Z,3.86
2023-02-11T10:41:51.244Z,3.95
2023-02-11T10:42:56.226Z,3.97
2023-02-11T10:44:00.458Z,4.07
2023-02-11T10:45:06.297Z,4.19
2023-02-11T10:46:16.398Z,4.25
2023-02-11T10:47:22.173Z,4.27
2023-02-11T10:48:44.928Z,4.34
2023-02-11T10:49:47.395Z,4.31
2023-02-11T10:50:49.065Z,4.25
2023-02-11T10:52:08.223Z,4.25
2023-02-11T10:53:17.380Z,4.31
2023-02-11T10:54:24.386Z,4.06
2023-02-11T10:55:27.880Z,4.06
2023-02-11T10:56:44.503Z,4.18
2023-02-11T10:57:59.344Z,4.26
2023-02-11T10:59:05.457Z,4.36
2023-02-11T11:00:23.061Z,4.41
2023-02-11T11:01:39.462Z,4.50
2023-02-11T11:02:44.549Z,4.45
2023-02-11T11:03:50.125Z,4.37
2023-02-11T11:04:57.633Z,4.15
2023-02-11T11:06:00.935Z,4.16
2023-02-11T11:07:20.100Z,4.22
2023-02-11T11:08:22.128Z,4.31
2023-02-11T11:09:43.338Z,4.25
2023-02-11T11:10:47.843Z,4.26
2023-02-11T11:11:53.912Z,4.32
2023-02-11T11:12:55.578Z,4.35
2023-02-11T11:14:00.260Z,4.38
2023-02-11T11:15:11.266Z,4.44
2023-02-11T11:16:12.836Z,4.46
2023-02-11T11:17:19.026Z,4.52
2023-02-11T11:18:23.304Z,4.67
2023-02-11T11:19:25.888Z,4.74
2023-02-11T11:20:29.804Z,4.89
2023-02-11T11:21:41.634Z,4.90
2023-02-11T11:22:43.934Z,4.90
2023-02-11T11:23:52.767Z,4.92
2023-02-11T11:24:55.942Z,4.97
2023-02-11T11:26:05.088Z,5.01
2023-02-11T11:27:07.098Z,5.06
2023-02-11T11:28:22.044Z,5.13
2023-02-11T11:29:38.069Z,5.11
2023-02-11T11:30:42.825Z,5.00
2023-02-11T11:32:05.580Z,5.03
2023-02-11T11:33:20.999Z,4.94
2023-02-11T11:34:29.881Z,4.81
2023-02-11T11:35:33.194Z,4.77
2023-02-11T11:36:38.076Z,4.78
2023-02-11T11:37:39.718Z,4.81
2023-02-11T11:38:50.390Z,4.79
2023-02-11T11:40:09.747Z,4.90
2023-02-11T11:41:22.616Z,4.75
2023-02-11T11:42:29.900Z,4.68
2023-02-11T11:43:31.995Z,4.67
2023-02-11T11:44:38.476Z,4.70
2023-02-11T11:45:52.976Z,4.68
2023-02-11T11:47:13.543Z,4.81
2023-02-11T11:48:34.355Z,4.92
2023-02-11T11:49:51.154Z,5.00
2023-02-11T11:51:02.060Z,5.14
2023-02-11T11:52:56.453Z,5.14
2023-02-11T11:54:03.081Z,5.14
2023-02-11T11:55:13.236Z,5.07
2023-02-11T11:56:19.924Z,5.07
2023-02-11T11:57:28.326Z,5.09
2023-02-11T11:58:32.259Z,5.05
2023-02-11T11:59:33.806Z,5.09
2023-02-11T12:00:47.502Z,5.12
2023-02-11T12:02:08.496Z,5.13
2023-02-11T12:03:40.807Z,5.20
2023-02-11T12:05:02.946Z,5.21
2023-02-11T12:06:19.771Z,5.25
2023-02-11T12:07:26.848Z,5.29
2023-02-11T12:08:50.155Z,5.32
2023-02-11T12:10:19.602Z,5.39
2023-02-11T12:11:34.738Z,5.46
2023-02-11T12:13:10.335Z,5.51
2023-02-11T12:14:49.529Z,5.50
2023-02-11T12:16:03.028Z,5.58
2023-02-11T12:17:22.410Z,5.61
2023-02-11T12:18:38.173Z,5.55
2023-02-11T12:20:10.138Z,5.56
2023-02-11T12:21:31.831Z,5.46
2023-02-11T12:22:47.400Z,5.40
2023-02-11T12:24:10.894Z,5.29
2023-02-11T12:25:39.710Z,5.28
2023-02-11T12:26:49.616Z,5.33
2023-02-11T12:28:15.307Z,5.39
2023-02-11T12:29:36.994Z,5.41
2023-02-11T12:30:53.562Z,5.28
2023-02-11T12:32:17.906Z,5.38
2023-02-11T12:33:42.059Z,5.48
2023-02-11T12:35:02.091Z,5.58
2023-02-11T12:36:20.696Z,5.64
2023-02-11T12:37:33.054Z,5.67
2023-02-11T12:38:38.021Z,5.73
2023-02-11T12:39:42.282Z,5.67
2023-02-11T12:41:05.327Z,5.66
2023-02-11T12:42:37.598Z,5.56
2023-02-11T12:43:44.486Z,5.60
2023-02-11T12:44:55.849Z,5.61
2023-02-11T12:46:31.291Z,5.61
2023-02-11T12:47:56.531Z,5.70
2023-02-11T12:49:31.061Z,5.74
2023-02-11T12:50:44.622Z,5.77
2023-02-11T12:52:04.518Z,5.87
2023-02-11T12:53:26.671Z,5.92
2023-02-11T12:54:47.736Z,5.80
2023-02-11T12:55:56.148Z,5.71
2023-02-11T12:57:15.682Z,5.71
2023-02-11T12:58:25.444Z,5.69
2023-02-11T12:59:56.711Z,5.77
2023-02-11T13:01:06.251Z,5.83
2023-02-11T13:02:37.467Z,5.77
2023-02-11T13:04:00.292Z,5.83
2023-02-11T13:05:19.638Z,5.87
2023-02-11T13:06:29.594Z,5.87
2023-02-11T13:07:40.650Z,5.79
2023-02-11T13:08:51.443Z,5.80
2023-02-11T13:10:02.190Z,5.86
2023-02-11T13:11:20.217Z,5.87
2023-02-11T13:12:40.670Z,5.82
2023-02-11T13:13:44.977Z,5.85
2023-02-11T13:14:48.708Z,5.87
2023-02-11T13:15:55.854Z,5.82
2023-02-11T13:16:58.702Z,5.90
2023-02-11T13:18:30.866Z,5.99
2023-02-11T13:19:48.449Z,6.03
2023-02-11T13:21:08.530Z,6.08
2023-02-11T13:22:18.790Z,6.10
2023-02-11T13:23:25.910Z,6.12
2023-02-11T13:25:06.165Z,6.18
2023-02-11T13:26:28.419Z,6.17
2023-02-11T13:27:38.373Z,6.10
2023-02-11T13:29:01.007Z,6.06
2023-02-11T13:30:11.206Z,6.07
2023-02-11T13:31:16.103Z,6.11
2023-02-11T13:32:17.739Z,6.08
2023-02-11T13:33:30.283Z,6.04
2023-02-11T13:34:43.718Z,6.11
2023-02-11T13:35:57.408Z,6.18
2023-02-11T13:36:59.099Z,6.27
2023-02-11T13:38:03.586Z,6.33
2023-02-11T13:39:06.564Z,6.37
2023-02-11T13:40:26.485Z,6.37
2023-02-11T13:41:31.908Z,6.21
2023-02-11T13:42:47.694Z,6.16
2023-02-11T13:44:23.727Z,6.02
2023-02-11T13:45:29.410Z,5.98
2023-02-11T13:46:50.820Z,6.09
2023-02-11T13:48:01.015Z,6.04
2023-02-11T13:49:02.559Z,5.96
2023-02-11T13:50:07.594Z,5.95
2023-02-11T13:51:12.664Z,5.88
2023-02-11T13:52:29.398Z,5.91
2023-02-11T13:53:54.894Z,5.97
2023-02-11T13:55:02.949Z,6.05
2023-02-11T13:56:09.618Z,6.08
2023-02-11T13:57:20.044Z,6.12
2023-02-11T13:58:29.043Z,6.14
2023-02-11T13:59:33.597Z,6.19
2023-02-11T14:00:35.281Z,6.25
2023-02-11T14:02:08.043Z,6.32
2023-02-11T14:03:31.056Z,6.35
2023-02-11T14:04:52.710Z,6.51
2023-02-11T14:06:37.865Z,6.58
2023-02-11T14:08:22.539Z,6.59
2023-02-11T14:09:34.233Z,6.60
2023-02-11T14:10:41.631Z,6.52
2023-02-11T14:11:49.063Z,6.52
2023-02-11T14:13:19.902Z,6.57
2023-02-11T14:14:35.034Z,6.59
2023-02-11T14:15:40.467Z,6.59
2023-02-11T14:17:11.398Z,6.58
2023-02-11T14:18:37.750Z,6.54
2023-02-11T14:19:43.741Z,6.54
2023-02-11T14:20:45.420Z,6.57
2023-02-11T14:21:47.083Z,6.62
2023-02-11T14:22:50.799Z,6.62
2023-02-11T14:23:56.210Z,6.60
2023-02-11T14:25:03.203Z,6.60
2023-02-11T14:26:20.127Z,6.64
2023-02-11T14:27:27.774Z,6.67
2023-02-11T14:28:34.379Z,6.63
2023-02-11T14:29:56.315Z,6.60
2023-02-11T14:31:07.317Z,6.52
2023-02-11T14:32:30.756Z,6.53
2023-02-11T14:33:56.941Z,6.49
2023-02-11T14:35:32.158Z,6.52
2023-02-11T14:36:44.670Z,6.40
2023-02-11T14:38:04.158Z,6.45
2023-02-11T14:39:17.758Z,6.45
2023-02-11T14:40:47.745Z,6.41